Time;durP1;ratioP1;P1;durP2;ratioP2;P2;SDS_P1;SDS_P2;PMS_P1;PMS_P2;Temp;Humidity;BMP_temperature;BMP_pressure;BME280_temperature;BME280_humidity;BME280_pressure;Samples;Min_cycle;Max_cycle;Signal;HPM_P1;HPM_P2
2023/07/19 00:02:46;;;;;;;;;;;;;;;21.38;100.00;95445.19;10480260;28;2311;-77
2023/07/19 00:07:49;;;;;;;;;;;;;;;21.47;100.00;95443.09;10475591;28;1826;-77
2023/07/19 00:12:52;;;;;;;;;;;;;;;21.58;100.00;95441.44;10480494;28;1971;-74
2023/07/19 00:17:58;;;;;;;;;;;;;;;21.65;100.00;95426.34;10472236;28;1883;-75
2023/07/19 00:23:01;;;;;;;;;;;;;;;21.58;100.00;95429.69;10473081;28;1877;-76
2023/07/19 00:28:05;;;;;;;;;;;;;;;21.58;100.00;95426.97;10466444;28;2248;-76
2023/07/19 00:33:08;;;;;;;;;;;;;;;21.63;100.00;95445.03;10480687;28;1956;-77
2023/07/19 00:38:12;;;;;;;;;;;;;;;21.63;100.00;95447.75;10481873;28;2012;-78
2023/07/19 00:43:16;;;;;;;;;;;;;;;21.66;100.00;95436.13;10497296;28;5172;-78
2023/07/19 00:48:18;;;;;;;;;;;;;;;21.68;100.00;95431.09;10478549;28;1973;-76
2023/07/19 00:53:21;;;;;;;;;;;;;;;21.59;100.00;95423.88;10483321;28;2208;-77
2023/07/19 00:58:25;;;;;;;;;;;;;;;21.43;100.00;95431.25;10489567;28;2601;-77
2023/07/19 01:03:30;;;;;;;;;;;;;;;21.36;100.00;95438.47;10479907;28;1915;-77
2023/07/19 01:08:33;;;;;;;;;;;;;;;21.30;100.00;95448.88;10473399;28;1959;-77
2023/07/19 01:13:39;;;;;;;;;;;;;;;21.19;100.00;95447.78;10481279;28;1972;-77
2023/07/19 01:18:45;;;;;;;;;;;;;;;21.04;100.00;95461.03;10478295;28;2005;-78
2023/07/19 01:23:47;;;;;;;;;;;;;;;21.02;100.00;95460.59;10477890;28;1973;-78
2023/07/19 01:28:50;;;;;;;;;;;;;;;21.05;100.00;95457.16;10464296;28;2280;-78
2023/07/19 01:33:53;;;;;;;;;;;;;;;20.96;100.00;95448.31;10476291;28;2083;-77
2023/07/19 01:38:59;;;;;;;;;;;;;;;20.91;100.00;95454.03;10481974;28;1988;-78
2023/07/19 01:44:09;;;;;;;;;;;;;;;20.88;100.00;95416.47;10476278;28;5202;-76
2023/07/19 01:49:12;;;;;;;;;;;;;;;20.74;100.00;95440.63;10484377;28;1969;-77
2023/07/19 01:54:15;;;;;;;;;;;;;;;20.71;100.00;95444.09;10473760;28;2283;-78
2023/07/19 01:59:18;;;;;;;;;;;;;;;20.56;100.00;95439.34;10476388;28;1969;-77
2023/07/19 02:04:21;;;;;;;;;;;;;;;20.44;100.00;95429.22;10483881;28;2151;-77
2023/07/19 02:09:24;;;;;;;;;;;;;;;20.35;100.00;95437.53;10481025;28;2004;-77
2023/07/19 02:14:26;;;;;;;;;;;;;;;20.37;100.00;95451.66;10474706;28;1847;-77
2023/07/19 02:19:30;;;;;;;;;;;;;;;20.55;100.00;95467.78;10472936;28;1925;-78
2023/07/19 02:24:34;;;;;;;;;;;;;;;20.66;100.00;95468.91;10476660;28;1964;-77
2023/07/19 02:29:36;;;;;;;;;;;;;;;20.67;100.00;95460.34;10473458;28;2079;-77
2023/07/19 02:34:40;;;;;;;;;;;;;;;20.59;100.00;95464.03;10479236;28;1970;-77
2023/07/19 02:39:44;;;;;;;;;;;;;;;20.58;100.00;95454.25;10479493;28;1994;-78
2023/07/19 02:44:48;;;;;;;;;;;;;;;20.39;100.00;95446.63;10483052;28;2110;-78
2023/07/19 02:49:52;;;;;;;;;;;;;;;20.31;100.00;95444.03;10462124;28;2126;-77
2023/07/19 02:54:56;;;;;;;;;;;;;;;20.12;100.00;95444.63;10485778;28;2324;-76
2023/07/19 02:59:58;;;;;;;;;;;;;;;20.03;100.00;95435.75;10477420;28;1971;-77
2023/07/19 03:05:02;;;;;;;;;;;;;;;19.90;100.00;95452.13;10474894;28;2026;-77
2023/07/19 03:10:04;;;;;;;;;;;;;;;19.78;100.00;95446.66;10474235;28;2037;-78
2023/07/19 03:15:09;;;;;;;;;;;;;;;19.78;100.00;95449.38;10479362;28;2246;-78
2023/07/19 03:20:12;;;;;;;;;;;;;;;19.62;100.00;95462.91;10476892;28;1975;-78
2023/07/19 03:25:15;;;;;;;;;;;;;;;19.59;100.00;95454.59;10480818;28;1917;-77
2023/07/19 03:30:17;;;;;;;;;;;;;;;19.59;100.00;95454.59;10476880;28;1995;-78
2023/07/19 03:35:21;;;;;;;;;;;;;;;19.49;100.00;95457.72;10473153;28;1973;-76
2023/07/19 03:40:24;;;;;;;;;;;;;;;19.54;100.00;95462.97;10461235;28;5061;-78
2023/07/19 03:45:28;;;;;;;;;;;;;;;19.53;100.00;95455.91;10480151;28;1993;-77
2023/07/19 03:50:33;;;;;;;;;;;;;;;19.59;100.00;95457.31;10476823;28;2468;-77
2023/07/19 03:55:36;;;;;;;;;;;;;;;19.65;100.00;95436.88;10460865;28;1889;-77
2023/07/19 04:00:39;;;;;;;;;;;;;;;19.78;100.00;95435.75;10481764;28;2053;-77
2023/07/19 04:05:44;;;;;;;;;;;;;;;19.85;100.00;95436.00;10482990;28;1881;-77
2023/07/19 04:10:46;;;;;;;;;;;;;;;20.00;100.00;95426.31;10492160;28;1914;-78
2023/07/19 04:15:49;;;;;;;;;;;;;;;20.17;100.00;95403.47;10480344;28;2061;-78
2023/07/19 04:20:53;;;;;;;;;;;;;;;20.22;100.00;95397.75;10483994;28;1983;-78
2023/07/19 04:25:55;;;;;;;;;;;;;;;20.50;100.00;95416.97;10485336;28;1921;-78
2023/07/19 04:30:58;;;;;;;;;;;;;;;20.76;100.00;95400.94;10479810;28;1976;-78
2023/07/19 04:36:04;;;;;;;;;;;;;;;21.02;100.00;95405.94;10481346;28;2021;-78
2023/07/19 04:41:10;;;;;;;;;;;;;;;21.22;100.00;95406.06;10475453;28;5047;-77
2023/07/19 04:46:13;;;;;;;;;;;;;;;21.42;100.00;95409.72;10479694;28;2040;-77
2023/07/19 04:51:16;;;;;;;;;;;;;;;21.65;100.00;95415.41;10474214;28;1993;-76
2023/07/19 04:56:19;;;;;;;;;;;;;;;21.89;100.00;95426.16;10478859;28;1976;-77
2023/07/19 05:01:22;;;;;;;;;;;;;;;22.23;100.00;95426.56;10479880;28;2001;-80
2023/07/19 05:06:34;;;;;;;;;;;;;;;22.45;100.00;95430.56;10482494;28;1902;-80
2023/07/19 05:11:40;;;;;;;;;;;;;;;23.10;100.00;95417.88;10483723;28;1967;-78
2023/07/19 05:16:43;;;;;;;;;;;;;;;23.39;100.00;95423.88;10483443;28;2012;-79
2023/07/19 05:21:46;;;;;;;;;;;;;;;23.54;100.00;95442.22;10481837;28;2010;-78
2023/07/19 05:26:49;;;;;;;;;;;;;;;23.93;100.00;95447.59;10479049;28;2073;-78
2023/07/19 05:31:52;;;;;;;;;;;;;;;23.53;100.00;95446.09;10471541;28;1992;-77
2023/07/19 05:36:56;;;;;;;;;;;;;;;23.00;100.00;95445.88;10476990;28;2035;-76
2023/07/19 05:41:58;;;;;;;;;;;;;;;23.34;100.00;95454.34;10487252;28;5069;-75
2023/07/19 05:47:01;;;;;;;;;;;;;;;23.91;100.00;95436.97;10486203;28;1897;-78
2023/07/19 05:52:03;;;;;;;;;;;;;;;23.96;100.00;95431.16;10483701;28;1963;-78
2023/07/19 05:57:07;;;;;;;;;;;;;;;23.90;100.00;95431.84;10484980;28;1934;-77
2023/07/19 06:02:16;;;;;;;;;;;;;;;24.34;100.00;95434.13;10475705;28;2136;-70
2023/07/19 06:07:58;;;;;;;;;;;;;;;25.17;100.00;95448.59;10477417;28;2020;-70
2023/07/19 06:13:21;;;;;;;;;;;;;;;25.18;100.00;95452.94;10481379;28;1972;-70
2023/07/19 06:18:24;;;;;;;;;;;;;;;25.00;100.00;95460.97;10473432;28;2136;-70
2023/07/19 06:23:27;;;;;;;;;;;;;;;25.41;100.00;95463.03;10479415;28;1945;-69
2023/07/19 06:28:30;;;;;;;;;;;;;;;25.24;100.00;95448.69;10476792;28;1999;-69
2023/07/19 06:33:34;;;;;;;;;;;;;;;25.77;100.00;95451.25;10474208;28;1906;-70
2023/07/19 06:38:37;;;;;;;;;;;;;;;26.07;100.00;95461.31;10478406;28;2286;-70
2023/07/19 06:43:40;;;;;;;;;;;;;;;26.00;100.00;95455.75;10480675;28;5018;-70
2023/07/19 06:48:44;;;;;;;;;;;;;;;26.03;100.00;95457.75;10474376;28;1988;-75
2023/07/19 06:53:47;;;;;;;;;;;;;;;25.68;100.00;95461.72;10473288;28;1995;-73
2023/07/19 06:59:02;;;;;;;;;;;;;;;25.47;100.00;95469.78;10467672;28;1968;-69
2023/07/19 07:04:07;;;;;;;;;;;;;;;25.53;100.00;95473.78;10475897;28;2000;-70
2023/07/19 07:09:11;;;;;;;;;;;;;;;25.70;100.00;95478.66;10478091;28;2032;-69
2023/07/19 07:14:13;;;;;;;;;;;;;;;25.78;100.00;95488.63;10479002;28;2072;-69
2023/07/19 07:19:16;;;;;;;;;;;;;;;25.65;100.00;95495.53;10478413;28;2012;-67
2023/07/19 07:24:20;;;;;;;;;;;;;;;25.77;100.00;95500.81;10474341;28;2008;-70
2023/07/19 07:29:23;;;;;;;;;;;;;;;25.95;100.00;95508.41;10477393;28;1956;-69
2023/07/19 07:34:27;;;;;;;;;;;;;;;26.31;100.00;95504.81;10480255;28;2420;-70
2023/07/19 07:39:29;;;;;;;;;;;;;;;26.21;100.00;95494.50;10471016;28;1972;-70
2023/07/19 07:44:33;;;;;;;;;;;;;;;26.72;100.00;95496.50;10465171;28;2069;-70
2023/07/19 07:49:35;;;;;;;;;;;;;;;26.56;100.00;95487.72;10489517;28;1980;-71
2023/07/19 07:54:38;;;;;;;;;;;;;;;26.47;100.00;95490.03;10491640;28;2049;-70
2023/07/19 07:59:41;;;;;;;;;;;;;;;26.79;100.00;95480.00;10489796;28;2047;-69
2023/07/19 08:04:44;;;;;;;;;;;;;;;26.36;100.00;95481.63;10499129;28;1917;-68
2023/07/19 08:09:46;;;;;;;;;;;;;;;27.14;100.00;95493.19;10486695;28;2039;-70
2023/07/19 08:14:49;;;;;;;;;;;;;;;27.00;100.00;95481.28;10487841;28;2020;-71
2023/07/19 08:19:52;;;;;;;;;;;;;;;26.84;100.00;95470.53;10487151;28;1955;-69
2023/07/19 08:24:55;;;;;;;;;;;;;;;26.71;100.00;95450.78;10470492;28;1984;-69
2023/07/19 08:30:09;;;;;;;;;;;;;;;26.92;100.00;95442.63;10476935;28;2401;-69
2023/07/19 08:35:11;;;;;;;;;;;;;;;27.61;96.72;95438.13;10484794;28;1953;-68
2023/07/19 08:40:15;;;;;;;;;;;;;;;27.54;99.64;95446.41;10486993;28;2307;-70
2023/07/19 08:45:18;;;;;;;;;;;;;;;27.88;94.87;95439.41;10490360;28;1928;-68
2023/07/19 08:50:21;;;;;;;;;;;;;;;27.82;94.63;95440.97;10486588;28;1984;-74
2023/07/19 08:55:26;;;;;;;;;;;;;;;27.99;92.15;95437.44;10478956;28;2044;-70
2023/07/19 09:00:32;;;;;;;;;;;;;;;28.36;88.89;95441.78;10483608;28;1978;-67
2023/07/19 09:05:35;;;;;;;;;;;;;;;27.93;90.79;95447.31;10478034;28;2006;-70
2023/07/19 09:10:38;;;;;;;;;;;;;;;27.86;85.46;95452.78;10485944;28;1973;-73
2023/07/19 09:15:41;;;;;;;;;;;;;;;28.12;84.99;95459.13;10473808;28;1964;-70
2023/07/19 09:20:44;;;;;;;;;;;;;;;27.54;84.17;95457.44;10481042;28;1956;-69
2023/07/19 09:25:47;;;;;;;;;;;;;;;27.52;84.72;95449.56;10472020;28;1992;-70
2023/07/19 09:30:50;;;;;;;;;;;;;;;27.93;82.57;95469.41;10483529;28;2122;-69
2023/07/19 09:35:52;;;;;;;;;;;;;;;28.03;82.08;95473.34;10476804;28;2050;-68
2023/07/19 09:40:55;;;;;;;;;;;;;;;28.01;80.98;95482.03;10482328;28;5275;-69
2023/07/19 09:45:58;;;;;;;;;;;;;;;27.76;83.05;95481.19;10478406;28;2262;-69
2023/07/19 09:51:01;;;;;;;;;;;;;;;28.27;79.88;95471.78;10477710;28;1971;-70
2023/07/19 09:56:05;;;;;;;;;;;;;;;27.99;77.34;95480.81;10480127;28;2040;-70
2023/07/19 10:01:08;;;;;;;;;;;;;;;27.59;75.19;95476.38;10476915;28;2115;-75
2023/07/19 10:06:11;;;;;;;;;;;;;;;27.62;73.38;95464.59;10475770;28;2005;-69
2023/07/19 10:11:14;;;;;;;;;;;;;;;28.03;70.44;95456.75;10480661;28;1967;-69
2023/07/19 10:16:17;;;;;;;;;;;;;;;28.44;68.76;95453.63;10474037;28;1984;-69
2023/07/19 10:21:20;;;;;;;;;;;;;;;28.85;65.75;95456.69;10480023;28;1901;-69
2023/07/19 10:26:23;;;;;;;;;;;;;;;28.23;67.76;95448.88;10474804;28;2044;-68
2023/07/19 10:31:27;;;;;;;;;;;;;;;27.63;69.01;95442.09;10483243;28;2036;-68
2023/07/19 10:36:31;;;;;;;;;;;;;;;27.85;71.39;95436.63;10484203;28;1988;-68
2023/07/19 10:41:34;;;;;;;;;;;;;;;28.07;69.69;95420.88;10479225;28;5022;-68
2023/07/19 10:46:36;;;;;;;;;;;;;;;28.19;68.48;95426.78;10478972;28;2196;-68
2023/07/19 10:51:39;;;;;;;;;;;;;;;28.88;67.44;95413.59;10472279;28;2080;-68
2023/07/19 10:56:42;;;;;;;;;;;;;;;27.97;70.12;95414.13;10476554;28;2306;-68
2023/07/19 11:01:46;;;;;;;;;;;;;;;28.50;64.23;95402.25;10474939;28;1982;-69
2023/07/19 11:06:50;;;;;;;;;;;;;;;28.94;60.19;95395.44;10481564;28;1964;-69
2023/07/19 11:11:55;;;;;;;;;;;;;;;28.12;60.04;95387.28;10473375;28;2040;-70
2023/07/19 11:16:57;;;;;;;;;;;;;;;29.45;57.14;95392.00;10471609;28;2085;-67
2023/07/19 11:22:00;;;;;;;;;;;;;;;30.35;55.47;95372.78;10476453;28;2195;-68
2023/07/19 11:27:03;;;;;;;;;;;;;;;29.63;59.17;95399.44;10478176;28;1982;-69
2023/07/19 11:32:06;;;;;;;;;;;;;;;28.02;62.24;95386.13;10472929;28;1970;-68
2023/07/19 11:37:12;;;;;;;;;;;;;;;28.49;63.48;95384.09;10472317;28;1964;-68
2023/07/19 11:42:15;;;;;;;;;;;;;;;28.26;61.06;95371.50;10468276;28;5102;-68
2023/07/19 11:47:18;;;;;;;;;;;;;;;28.05;59.29;95376.25;10473175;28;2005;-68
2023/07/19 11:52:21;;;;;;;;;;;;;;;28.50;57.73;95364.38;10478508;28;1969;-69
2023/07/19 11:57:23;;;;;;;;;;;;;;;29.04;59.93;95355.88;10473070;28;1967;-68
2023/07/19 12:02:26;;;;;;;;;;;;;;;29.58;57.02;95359.13;10479593;28;1945;-69
2023/07/19 12:07:30;;;;;;;;;;;;;;;29.25;57.31;95335.59;10472525;28;1941;-71
2023/07/19 12:12:33;;;;;;;;;;;;;;;28.90;57.73;95334.56;10469606;28;2005;-67
2023/07/19 12:17:36;;;;;;;;;;;;;;;29.09;59.35;95333.31;10467489;28;2305;-68
2023/07/19 12:22:39;;;;;;;;;;;;;;;29.34;60.89;95322.09;10472896;28;1935;-69
2023/07/19 12:27:42;;;;;;;;;;;;;;;29.87;58.95;95320.91;10479817;28;1983;-67
2023/07/19 12:32:45;;;;;;;;;;;;;;;29.24;56.07;95311.88;10485342;28;2006;-76
2023/07/19 12:37:48;;;;;;;;;;;;;;;29.03;57.66;95323.88;10482056;28;1991;-77
2023/07/19 12:42:51;;;;;;;;;;;;;;;29.32;55.02;95307.84;10479174;28;5074;-77
2023/07/19 12:47:54;;;;;;;;;;;;;;;29.46;53.42;95305.00;10481322;28;1920;-78
2023/07/19 12:52:57;;;;;;;;;;;;;;;29.82;53.10;95301.97;10481597;28;2040;-76
2023/07/19 12:57:59;;;;;;;;;;;;;;;29.84;51.00;95303.13;10483001;28;1980;-78
2023/07/19 13:03:04;;;;;;;;;;;;;;;29.69;50.70;95292.56;10481338;28;2039;-78
2023/07/19 13:08:08;;;;;;;;;;;;;;;29.69;49.67;95292.56;10472270;28;2031;-77
2023/07/19 13:13:10;;;;;;;;;;;;;;;28.98;51.40;95289.09;10464120;28;2225;-78
2023/07/19 13:18:14;;;;;;;;;;;;;;;28.78;52.53;95276.94;10480828;28;2038;-77
2023/07/19 13:23:16;;;;;;;;;;;;;;;29.10;51.50;95295.38;10470145;28;1976;-77
2023/07/19 13:28:20;;;;;;;;;;;;;;;29.66;50.47;95274.03;10477838;28;1988;-76
2023/07/19 13:33:24;;;;;;;;;;;;;;;29.54;50.07;95280.84;10461284;28;2029;-77
2023/07/19 13:38:28;;;;;;;;;;;;;;;29.86;51.48;95258.41;10481747;28;1940;-86
2023/07/19 13:43:36;;;;;;;;;;;;;;;29.72;48.98;95269.63;10492195;28;5071;-79
2023/07/19 13:48:39;;;;;;;;;;;;;;;29.63;50.09;95263.75;10482003;28;2020;-82
2023/07/19 13:53:43;;;;;;;;;;;;;;;29.65;49.14;95256.63;10461741;28;2048;-77
2023/07/19 13:58:46;;;;;;;;;;;;;;;29.60;49.92;95245.97;10480595;28;2006;-77
2023/07/19 14:03:50;;;;;;;;;;;;;;;29.95;48.05;95249.59;10476892;28;1996;-76
2023/07/19 14:08:53;;;;;;;;;;;;;;;29.48;49.23;95232.59;10477807;28;2315;-76
2023/07/19 14:13:56;;;;;;;;;;;;;;;29.88;49.10;95223.53;10477415;28;1972;-77
2023/07/19 14:18:59;;;;;;;;;;;;;;;29.55;49.58;95233.34;10479818;28;1995;-76
2023/07/19 14:24:01;;;;;;;;;;;;;;;29.39;48.89;95218.44;10478203;28;2107;-76
2023/07/19 14:29:06;;;;;;;;;;;;;;;29.17;49.81;95213.06;10478644;28;2013;-77
2023/07/19 14:34:10;;;;;;;;;;;;;;;29.64;49.30;95207.16;10463708;28;1967;-77
2023/07/19 14:39:13;;;;;;;;;;;;;;;29.67;48.37;95209.13;10472433;28;1979;-76
2023/07/19 14:44:16;;;;;;;;;;;;;;;29.78;47.19;95204.25;10475783;28;5082;-76
2023/07/19 14:49:20;;;;;;;;;;;;;;;29.14;49.19;95202.84;10475945;28;2099;-75
2023/07/19 14:54:23;;;;;;;;;;;;;;;28.64;49.97;95203.16;10474669;28;2077;-77
2023/07/19 14:59:28;;;;;;;;;;;;;;;28.63;51.54;95198.00;10474022;28;2072;-76
2023/07/19 15:04:30;;;;;;;;;;;;;;;29.18;48.65;95181.44;10477809;28;2421;-77
2023/07/19 15:09:33;;;;;;;;;;;;;;;29.12;48.63;95188.59;10473827;28;1984;-76
2023/07/19 15:14:37;;;;;;;;;;;;;;;29.33;48.46;95187.66;10478227;28;1971;-77
2023/07/19 15:19:39;;;;;;;;;;;;;;;30.07;48.69;95174.25;10479719;28;1992;-77
2023/07/19 15:24:59;;;;;;;;;;;;;;;30.47;46.17;95158.69;10474050;28;1982;-77
2023/07/19 15:30:02;;;;;;;;;;;;;;;30.14;45.55;95158.31;10475409;28;1989;-78
2023/07/19 15:35:07;;;;;;;;;;;;;;;29.23;47.92;95180.22;10478036;28;2003;-76
2023/07/19 15:40:11;;;;;;;;;;;;;;;29.21;47.98;95163.25;10472251;28;5480;-76
2023/07/19 15:45:14;;;;;;;;;;;;;;;28.80;50.10;95158.38;10474938;28;1933;-76
2023/07/19 15:50:19;;;;;;;;;;;;;;;28.60;50.77;95160.09;10457620;28;1921;-77
2023/07/19 15:55:22;;;;;;;;;;;;;;;28.64;53.02;95163.66;10476519;28;2023;-77
2023/07/19 16:00:26;;;;;;;;;;;;;;;29.39;50.12;95151.97;10473961;28;2373;-77
2023/07/19 16:05:29;;;;;;;;;;;;;;;30.05;46.71;95155.25;10485452;28;1968;-77
2023/07/19 16:10:32;;;;;;;;;;;;;;;29.87;47.55;95149.13;10483027;28;1870;-77
2023/07/19 16:15:35;;;;;;;;;;;;;;;29.84;47.96;95141.66;10479874;28;1979;-77
2023/07/19 16:20:38;;;;;;;;;;;;;;;29.23;48.92;95141.47;10480095;28;1910;-77
2023/07/19 16:25:41;;;;;;;;;;;;;;;29.34;48.92;95144.94;10485098;28;1862;-77
2023/07/19 16:30:45;;;;;;;;;;;;;;;28.96;49.88;95138.56;10482873;28;2108;-76
2023/07/19 16:35:48;;;;;;;;;;;;;;;28.71;50.94;95144.25;10483282;28;1918;-76
2023/07/19 16:40:51;;;;;;;;;;;;;;;28.36;52.98;95145.25;10478429;28;5278;-76
2023/07/19 16:45:54;;;;;;;;;;;;;;;28.33;54.09;95141.31;10480566;28;1905;-77
2023/07/19 16:50:57;;;;;;;;;;;;;;;28.18;54.93;95148.06;10478159;28;1890;-77
2023/07/19 16:56:00;;;;;;;;;;;;;;;28.13;55.58;95135.47;10485868;28;2248;-76
2023/07/19 17:01:04;;;;;;;;;;;;;;;28.10;55.24;95136.25;10483755;28;1913;-77
2023/07/19 17:06:07;;;;;;;;;;;;;;;27.93;57.01;95140.69;10464240;28;2124;-76
2023/07/19 17:11:09;;;;;;;;;;;;;;;27.92;57.64;95139.09;10466671;28;2156;-77
2023/07/19 17:16:13;;;;;;;;;;;;;;;28.27;56.96;95143.69;10481135;28;1910;-76
2023/07/19 17:21:16;;;;;;;;;;;;;;;28.40;55.88;95146.81;10483913;28;1894;-76
2023/07/19 17:26:19;;;;;;;;;;;;;;;28.34;55.87;95145.66;10481017;28;1901;-75
2023/07/19 17:31:22;;;;;;;;;;;;;;;27.98;57.13;95154.06;10478097;28;1886;-76
2023/07/19 17:36:26;;;;;;;;;;;;;;;27.68;58.30;95151.00;10482295;28;1906;-76
2023/07/19 17:41:29;;;;;;;;;;;;;;;27.62;59.75;95158.91;10479475;28;5086;-76
2023/07/19 17:46:32;;;;;;;;;;;;;;;27.56;60.32;95162.47;10477957;28;1949;-76
2023/07/19 17:51:35;;;;;;;;;;;;;;;27.22;62.36;95171.19;10482524;28;1842;-76
2023/07/19 17:56:38;;;;;;;;;;;;;;;26.93;64.49;95171.16;10482988;28;2238;-76
2023/07/19 18:01:41;;;;;;;;;;;;;;;26.85;64.92;95164.09;10456928;28;1880;-76
2023/07/19 18:06:44;;;;;;;;;;;;;;;26.78;66.57;95174.28;10477680;28;1982;-77
2023/07/19 18:11:47;;;;;;;;;;;;;;;26.58;67.26;95171.91;10475099;28;1875;-77
2023/07/19 18:16:50;;;;;;;;;;;;;;;26.42;69.27;95173.47;10474553;28;1973;-78
2023/07/19 18:21:53;;;;;;;;;;;;;;;26.19;71.04;95185.56;10486882;28;1881;-76
2023/07/19 18:27:07;;;;;;;;;;;;;;;25.88;73.54;95178.75;10473091;28;1902;-77
2023/07/19 18:32:09;;;;;;;;;;;;;;;25.72;74.62;95178.25;10474151;28;1822;-76
2023/07/19 18:37:13;;;;;;;;;;;;;;;25.52;75.59;95188.75;10478251;28;1922;-75
2023/07/19 18:42:16;;;;;;;;;;;;;;;25.31;77.76;95189.38;10478142;28;1905;-76
2023/07/19 18:47:18;;;;;;;;;;;;;;;25.17;79.29;95184.56;10477361;28;1886;-77
2023/07/19 18:52:21;;;;;;;;;;;;;;;24.99;80.83;95178.13;10477840;28;2379;-77
2023/07/19 18:57:25;;;;;;;;;;;;;;;24.85;82.01;95186.25;10473233;28;1941;-76
2023/07/19 19:02:28;;;;;;;;;;;;;;;24.68;83.98;95202.19;10478149;28;1823;-77
2023/07/19 19:07:30;;;;;;;;;;;;;;;24.50;85.31;95213.00;10460066;28;1886;-77
2023/07/19 19:12:34;;;;;;;;;;;;;;;24.32;86.58;95224.94;10470966;28;1998;-77
2023/07/19 19:17:36;;;;;;;;;;;;;;;24.18;88.12;95229.09;10478852;28;1981;-77
2023/07/19 19:22:39;;;;;;;;;;;;;;;23.94;89.87;95235.84;10476285;28;1790;-77
2023/07/19 19:27:43;;;;;;;;;;;;;;;23.72;91.55;95248.47;10476150;28;1905;-77
2023/07/19 19:32:46;;;;;;;;;;;;;;;23.57;92.86;95265.09;10474518;28;1795;-78
2023/07/19 19:37:50;;;;;;;;;;;;;;;23.45;93.02;95271.56;10474900;28;1910;-76
2023/07/19 19:42:53;;;;;;;;;;;;;;;23.37;94.09;95286.34;10478777;28;1933;-77
2023/07/19 19:47:56;;;;;;;;;;;;;;;23.32;95.03;95294.88;10452325;28;1886;-77
2023/07/19 19:53:01;;;;;;;;;;;;;;;23.21;95.72;95289.19;10474146;28;1875;-70
2023/07/19 19:58:13;;;;;;;;;;;;;;;23.08;96.75;95282.31;10471651;28;2029;-71
2023/07/19 20:03:16;;;;;;;;;;;;;;;23.14;96.57;95287.13;10476317;28;1842;-71
2023/07/19 20:08:22;;;;;;;;;;;;;;;23.19;96.94;95310.72;10470864;28;1862;-70
2023/07/19 20:13:25;;;;;;;;;;;;;;;23.01;97.92;95296.69;10471919;28;1993;-71
2023/07/19 20:18:28;;;;;;;;;;;;;;;22.90;99.16;95295.69;10478742;28;2024;-70
2023/07/19 20:23:34;;;;;;;;;;;;;;;22.85;99.56;95296.00;10478760;28;1971;-67
2023/07/19 20:28:37;;;;;;;;;;;;;;;22.70;100.00;95294.13;10473861;28;2382;-69
2023/07/19 20:33:44;;;;;;;;;;;;;;;22.70;100.00;95305.09;10473237;28;1918;-68
2023/07/19 20:38:47;;;;;;;;;;;;;;;22.68;100.00;95308.19;10468732;28;1909;-68
2023/07/19 20:43:50;;;;;;;;;;;;;;;22.69;100.00;95298.03;10463945;28;5077;-69
2023/07/19 20:48:57;;;;;;;;;;;;;;;22.53;100.00;95309.88;10471937;28;1972;-68
2023/07/19 20:54:06;;;;;;;;;;;;;;;22.53;100.00;95317.31;10483179;28;1974;-69
2023/07/19 20:59:11;;;;;;;;;;;;;;;22.49;100.00;95324.66;10481105;28;1919;-70
2023/07/19 21:04:17;;;;;;;;;;;;;;;22.53;100.00;95312.63;10476648;28;1818;-70
2023/07/19 21:09:25;;;;;;;;;;;;;;;22.53;100.00;95326.31;10479777;28;1947;-68
2023/07/19 21:14:29;;;;;;;;;;;;;;;22.50;100.00;95318.81;10481819;28;1998;-68
2023/07/19 21:19:32;;;;;;;;;;;;;;;22.48;100.00;95329.34;10481214;28;1948;-68
2023/07/19 21:24:36;;;;;;;;;;;;;;;22.37;100.00;95325.56;10475729;28;1896;-67
2023/07/19 21:29:42;;;;;;;;;;;;;;;22.29;100.00;95335.59;10477077;28;1859;-69
2023/07/19 21:34:49;;;;;;;;;;;;;;;22.02;100.00;95331.06;10477407;28;1984;-68
2023/07/19 21:39:52;;;;;;;;;;;;;;;21.96;100.00;95333.28;10476140;28;5117;-68
2023/07/19 21:44:55;;;;;;;;;;;;;;;21.90;100.00;95329.25;10480602;28;1859;-71
2023/07/19 21:49:59;;;;;;;;;;;;;;;21.74;100.00;95337.47;10479273;28;1838;-69
2023/07/19 21:55:02;;;;;;;;;;;;;;;21.94;100.00;95346.50;10481757;28;1938;-71
2023/07/19 22:00:05;;;;;;;;;;;;;;;21.89;100.00;95355.03;10474861;28;1931;-69
2023/07/19 22:05:08;;;;;;;;;;;;;;;21.79;100.00;95350.09;10475669;28;1823;-68
2023/07/19 22:10:11;;;;;;;;;;;;;;;21.79;100.00;95347.34;10477067;28;2020;-72
2023/07/19 22:15:13;;;;;;;;;;;;;;;21.77;100.00;95366.06;10474767;28;1975;-68
2023/07/19 22:20:17;;;;;;;;;;;;;;;21.65;100.00;95372.44;10475984;28;1885;-71
2023/07/19 22:25:20;;;;;;;;;;;;;;;21.61;100.00;95374.28;10466024;28;1924;-68
2023/07/19 22:30:24;;;;;;;;;;;;;;;21.37;100.00;95372.50;10477905;28;1915;-68
2023/07/19 22:35:27;;;;;;;;;;;;;;;21.56;100.00;95380.78;10474564;28;2365;-69
2023/07/19 22:40:31;;;;;;;;;;;;;;;21.93;100.00;95396.91;10475702;28;1827;-70
2023/07/19 22:45:33;;;;;;;;;;;;;;;21.78;100.00;95364.91;10476970;28;1811;-68
2023/07/19 22:50:38;;;;;;;;;;;;;;;21.47;100.00;95371.97;10477037;28;1945;-69
2023/07/19 22:55:41;;;;;;;;;;;;;;;21.49;100.00;95380.63;10474914;28;1906;-71
2023/07/19 23:00:46;;;;;;;;;;;;;;;21.28;100.00;95380.06;10478732;28;2037;-67
2023/07/19 23:05:51;;;;;;;;;;;;;;;21.29;100.00;95387.13;10476289;28;2259;-68
2023/07/19 23:10:55;;;;;;;;;;;;;;;21.23;100.00;95383.03;10473984;28;1956;-67
2023/07/19 23:15:58;;;;;;;;;;;;;;;21.39;100.00;95383.09;10477342;28;1987;-68
2023/07/19 23:21:01;;;;;;;;;;;;;;;21.32;100.00;95391.91;10478395;28;1810;-68
2023/07/19 23:26:04;;;;;;;;;;;;;;;21.42;100.00;95388.66;10475328;28;1885;-68
2023/07/19 23:31:07;;;;;;;;;;;;;;;21.40;100.00;95398.38;10475350;28;2501;-67
2023/07/19 23:36:10;;;;;;;;;;;;;;;21.29;100.00;95403.53;10478192;28;1972;-67
2023/07/19 23:41:14;;;;;;;;;;;;;;;21.23;100.00;95410.38;10472515;28;5058;-69
2023/07/19 23:46:17;;;;;;;;;;;;;;;21.33;100.00;95415.38;10470103;28;1847;-68
2023/07/19 23:51:20;;;;;;;;;;;;;;;21.50;100.00;95428.72;10470838;28;1886;-72
2023/07/19 23:56:27;;;;;;;;;;;;;;;21.46;100.00;95419.63;10471031;28;1910;-69
